sensor_id;sensor_type;location;lat;lon;timestamp;temperature;humidity
47382;DHT22;33128;51.580;5.170;2023-04-24T00:00:08;14.40;99.90
47382;DHT22;33128;51.580;5.170;2023-04-24T00:02:34;14.40;99.90
47382;DHT22;33128;51.580;5.170;2023-04-24T00:05:03;14.30;99.90
47382;DHT22;33128;51.580;5.170;2023-04-24T00:07:30;14.30;99.90
47382;DHT22;33128;51.580;5.170;2023-04-24T00:09:56;14.30;99.90
47382;DHT22;33128;51.580;5.170;2023-04-24T00:12:22;14.30;99.90
47382;DHT22;33128;51.580;5.170;2023-04-24T00:14:47;14.50;99.90
47382;DHT22;33128;51.580;5.170;2023-04-24T00:17:14;14.50;99.90
47382;DHT22;33128;51.580;5.170;2023-04-24T00:19:45;14.50;99.90
47382;DHT22;33128;51.580;5.170;2023-04-24T00:22:14;14.40;99.90
47382;DHT22;33128;51.580;5.170;2023-04-24T00:24:40;14.90;99.90
47382;DHT22;33128;51.580;5.170;2023-04-24T00:27:06;14.20;99.90
47382;DHT22;33128;51.580;5.170;2023-04-24T00:29:34;14.30;99.90
47382;DHT22;33128;51.580;5.170;2023-04-24T00:32:00;14.50;99.90
47382;DHT22;33128;51.580;5.170;2023-04-24T00:34:25;14.20;99.90
47382;DHT22;33128;51.580;5.170;2023-04-24T00:36:51;14.50;99.90
47382;DHT22;33128;51.580;5.170;2023-04-24T00:39:20;14.30;99.90
47382;DHT22;33128;51.580;5.170;2023-04-24T00:41:46;14.30;99.90
47382;DHT22;33128;51.580;5.170;2023-04-24T00:44:12;14.20;99.90
47382;DHT22;33128;51.580;5.170;2023-04-24T00:46:38;14.70;99.90
47382;DHT22;33128;51.580;5.170;2023-04-24T00:49:05;14.30;99.90
47382;DHT22;33128;51.580;5.170;2023-04-24T00:51:34;14.40;99.90
47382;DHT22;33128;51.580;5.170;2023-04-24T00:54:01;14.50;99.90
47382;DHT22;33128;51.580;5.170;2023-04-24T00:56:27;14.50;99.90
47382;DHT22;33128;51.580;5.170;2023-04-24T00:58:53;14.40;99.90
47382;DHT22;33128;51.580;5.170;2023-04-24T01:01:25;14.50;99.90
47382;DHT22;33128;51.580;5.170;2023-04-24T01:03:51;14.40;99.90
47382;DHT22;33128;51.580;5.170;2023-04-24T01:06:18;14.50;99.90
47382;DHT22;33128;51.580;5.170;2023-04-24T01:08:46;14.30;99.90
47382;DHT22;33128;51.580;5.170;2023-04-24T01:11:13;14.40;99.90
47382;DHT22;33128;51.580;5.170;2023-04-24T01:13:39;14.20;99.90
47382;DHT22;33128;51.580;5.170;2023-04-24T01:16:05;14.30;99.90
47382;DHT22;33128;51.580;5.170;2023-04-24T01:18:31;14.40;99.90
47382;DHT22;33128;51.580;5.170;2023-04-24T01:20:58;14.30;99.90
47382;DHT22;33128;51.580;5.170;2023-04-24T01:23:25;14.60;99.90
47382;DHT22;33128;51.580;5.170;2023-04-24T01:25:51;14.50;99.90
47382;DHT22;33128;51.580;5.170;2023-04-24T01:28:18;14.40;99.90
47382;DHT22;33128;51.580;5.170;2023-04-24T01:30:44;14.40;99.90
47382;DHT22;33128;51.580;5.170;2023-04-24T01:33:10;14.20;99.90
47382;DHT22;33128;51.580;5.170;2023-04-24T01:35:37;14.50;99.90
47382;DHT22;33128;51.580;5.170;2023-04-24T01:38:03;14.20;99.90
47382;DHT22;33128;51.580;5.170;2023-04-24T01:40:29;14.40;99.90
47382;DHT22;33128;51.580;5.170;2023-04-24T01:42:54;14.50;99.90
47382;DHT22;33128;51.580;5.170;2023-04-24T01:45:20;14.50;99.90
47382;DHT22;33128;51.580;5.170;2023-04-24T01:47:46;14.30;99.90
47382;DHT22;33128;51.580;5.170;2023-04-24T01:50:13;14.30;99.90
47382;DHT22;33128;51.580;5.170;2023-04-24T01:52:40;14.30;99.90
47382;DHT22;33128;51.580;5.170;2023-04-24T01:55:06;14.30;99.90
47382;DHT22;33128;51.580;5.170;2023-04-24T01:57:33;14.30;99.90
47382;DHT22;33128;51.580;5.170;2023-04-24T01:59:59;14.40;99.90
47382;DHT22;33128;51.580;5.170;2023-04-24T02:02:25;14.20;99.90
47382;DHT22;33128;51.580;5.170;2023-04-24T02:04:53;14.30;99.90
47382;DHT22;33128;51.580;5.170;2023-04-24T02:07:19;14.20;99.90
47382;DHT22;33128;51.580;5.170;2023-04-24T02:09:45;14.20;99.90
47382;DHT22;33128;51.580;5.170;2023-04-24T02:12:10;14.20;99.90
47382;DHT22;33128;51.580;5.170;2023-04-24T02:14:36;14.20;99.90
47382;DHT22;33128;51.580;5.170;2023-04-24T02:17:02;14.20;99.90
47382;DHT22;33128;51.580;5.170;2023-04-24T02:19:27;14.10;99.90
47382;DHT22;33128;51.580;5.170;2023-04-24T02:21:53;14.20;99.90
47382;DHT22;33128;51.580;5.170;2023-04-24T02:24:18;14.30;99.90
47382;DHT22;33128;51.580;5.170;2023-04-24T02:26:44;14.20;99.90
47382;DHT22;33128;51.580;5.170;2023-04-24T02:29:10;14.20;99.90
47382;DHT22;33128;51.580;5.170;2023-04-24T02:31:36;14.30;99.90
47382;DHT22;33128;51.580;5.170;2023-04-24T02:34:01;14.10;99.90
47382;DHT22;33128;51.580;5.170;2023-04-24T02:36:27;14.30;99.90
47382;DHT22;33128;51.580;5.170;2023-04-24T02:38:54;14.30;99.90
47382;DHT22;33128;51.580;5.170;2023-04-24T02:41:19;14.10;99.90
47382;DHT22;33128;51.580;5.170;2023-04-24T02:43:45;14.10;99.90
47382;DHT22;33128;51.580;5.170;2023-04-24T02:46:12;14.20;99.90
47382;DHT22;33128;51.580;5.170;2023-04-24T02:48:37;14.30;99.90
47382;DHT22;33128;51.580;5.170;2023-04-24T02:51:06;14.30;99.90
47382;DHT22;33128;51.580;5.170;2023-04-24T02:53:32;14.40;99.90
47382;DHT22;33128;51.580;5.170;2023-04-24T02:55:58;14.30;99.90
47382;DHT22;33128;51.580;5.170;2023-04-24T02:58:23;14.20;99.90
47382;DHT22;33128;51.580;5.170;2023-04-24T03:00:54;14.20;99.90
47382;DHT22;33128;51.580;5.170;2023-04-24T03:03:21;14.40;99.90
47382;DHT22;33128;51.580;5.170;2023-04-24T03:05:46;14.20;99.90
47382;DHT22;33128;51.580;5.170;2023-04-24T03:08:12;14.30;99.90
47382;DHT22;33128;51.580;5.170;2023-04-24T03:10:39;14.20;99.90
47382;DHT22;33128;51.580;5.170;2023-04-24T03:13:05;14.30;99.90
47382;DHT22;33128;51.580;5.170;2023-04-24T03:15:31;14.20;99.90
47382;DHT22;33128;51.580;5.170;2023-04-24T03:17:57;14.20;99.90
47382;DHT22;33128;51.580;5.170;2023-04-24T03:20:23;14.20;99.90
47382;DHT22;33128;51.580;5.170;2023-04-24T03:22:49;14.30;99.90
47382;DHT22;33128;51.580;5.170;2023-04-24T03:25:15;14.20;99.90
47382;DHT22;33128;51.580;5.170;2023-04-24T03:27:40;14.30;99.90
47382;DHT22;33128;51.580;5.170;2023-04-24T03:30:07;14.10;99.90
47382;DHT22;33128;51.580;5.170;2023-04-24T03:32:33;14.20;99.90
47382;DHT22;33128;51.580;5.170;2023-04-24T03:34:58;14.10;99.90
47382;DHT22;33128;51.580;5.170;2023-04-24T03:37:24;14.00;99.90
47382;DHT22;33128;51.580;5.170;2023-04-24T03:39:49;14.30;99.90
47382;DHT22;33128;51.580;5.170;2023-04-24T03:42:15;14.20;99.90
47382;DHT22;33128;51.580;5.170;2023-04-24T03:44:41;14.20;99.90
47382;DHT22;33128;51.580;5.170;2023-04-24T03:47:07;14.00;99.90
47382;DHT22;33128;51.580;5.170;2023-04-24T03:49:32;14.30;99.90
47382;DHT22;33128;51.580;5.170;2023-04-24T03:51:58;14.10;99.90
47382;DHT22;33128;51.580;5.170;2023-04-24T03:54:23;14.10;99.90
47382;DHT22;33128;51.580;5.170;2023-04-24T03:56:50;14.00;99.90
47382;DHT22;33128;51.580;5.170;2023-04-24T03:59:15;14.10;99.90
47382;DHT22;33128;51.580;5.170;2023-04-24T04:01:41;14.20;99.90
47382;DHT22;33128;51.580;5.170;2023-04-24T04:04:06;14.00;99.90
47382;DHT22;33128;51.580;5.170;2023-04-24T04:06:33;13.90;99.90
47382;DHT22;33128;51.580;5.170;2023-04-24T04:08:59;14.10;99.90
47382;DHT22;33128;51.580;5.170;2023-04-24T04:11:25;13.90;99.90
47382;DHT22;33128;51.580;5.170;2023-04-24T04:13:51;13.90;99.90
47382;DHT22;33128;51.580;5.170;2023-04-24T04:16:17;13.90;99.90
47382;DHT22;33128;51.580;5.170;2023-04-24T04:18:43;14.00;99.90
47382;DHT22;33128;51.580;5.170;2023-04-24T04:21:09;13.90;99.90
47382;DHT22;33128;51.580;5.170;2023-04-24T04:23:37;14.00;99.90
47382;DHT22;33128;51.580;5.170;2023-04-24T04:26:03;14.00;99.90
47382;DHT22;33128;51.580;5.170;2023-04-24T04:28:29;14.10;99.90
47382;DHT22;33128;51.580;5.170;2023-04-24T04:30:59;14.10;99.90
47382;DHT22;33128;51.580;5.170;2023-04-24T04:33:26;14.10;99.90
47382;DHT22;33128;51.580;5.170;2023-04-24T04:35:55;14.10;99.90
47382;DHT22;33128;51.580;5.170;2023-04-24T04:38:22;14.40;99.90
47382;DHT22;33128;51.580;5.170;2023-04-24T04:40:48;14.10;99.90
47382;DHT22;33128;51.580;5.170;2023-04-24T04:43:13;14.00;99.90
47382;DHT22;33128;51.580;5.170;2023-04-24T04:45:40;13.90;99.90
47382;DHT22;33128;51.580;5.170;2023-04-24T04:48:08;14.10;99.90
47382;DHT22;33128;51.580;5.170;2023-04-24T04:50:37;14.10;99.90
47382;DHT22;33128;51.580;5.170;2023-04-24T04:53:03;14.00;99.90
47382;DHT22;33128;51.580;5.170;2023-04-24T04:55:28;13.80;99.90
47382;DHT22;33128;51.580;5.170;2023-04-24T04:57:54;13.90;99.90
47382;DHT22;33128;51.580;5.170;2023-04-24T05:00:21;13.90;99.90
47382;DHT22;33128;51.580;5.170;2023-04-24T05:02:47;14.00;99.90
47382;DHT22;33128;51.580;5.170;2023-04-24T05:05:12;14.00;99.90
47382;DHT22;33128;51.580;5.170;2023-04-24T05:07:39;13.90;99.90
47382;DHT22;33128;51.580;5.170;2023-04-24T05:10:08;13.90;99.90
47382;DHT22;33128;51.580;5.170;2023-04-24T05:12:34;13.90;99.90
47382;DHT22;33128;51.580;5.170;2023-04-24T05:15:00;14.00;99.90
47382;DHT22;33128;51.580;5.170;2023-04-24T05:17:25;14.10;99.90
47382;DHT22;33128;51.580;5.170;2023-04-24T05:19:51;13.90;99.90
47382;DHT22;33128;51.580;5.170;2023-04-24T05:22:17;13.90;99.90
47382;DHT22;33128;51.580;5.170;2023-04-24T05:24:45;14.00;99.90
47382;DHT22;33128;51.580;5.170;2023-04-24T05:27:11;13.90;99.90
47382;DHT22;33128;51.580;5.170;2023-04-24T05:29:37;13.90;99.90
47382;DHT22;33128;51.580;5.170;2023-04-24T05:32:03;13.80;99.90
47382;DHT22;33128;51.580;5.170;2023-04-24T05:34:28;13.90;99.90
47382;DHT22;33128;51.580;5.170;2023-04-24T05:36:54;14.00;99.90
47382;DHT22;33128;51.580;5.170;2023-04-24T05:39:20;14.00;99.90
47382;DHT22;33128;51.580;5.170;2023-04-24T05:41:45;13.90;99.90
47382;DHT22;33128;51.580;5.170;2023-04-24T05:44:11;14.00;99.90
47382;DHT22;33128;51.580;5.170;2023-04-24T05:46:37;14.10;99.90
47382;DHT22;33128;51.580;5.170;2023-04-24T05:49:02;14.00;99.90
47382;DHT22;33128;51.580;5.170;2023-04-24T05:51:28;13.90;99.90
47382;DHT22;33128;51.580;5.170;2023-04-24T05:53:54;14.00;99.90
47382;DHT22;33128;51.580;5.170;2023-04-24T05:56:20;13.90;99.90
47382;DHT22;33128;51.580;5.170;2023-04-24T05:58:46;13.90;99.90
47382;DHT22;33128;51.580;5.170;2023-04-24T06:01:12;14.20;99.90
47382;DHT22;33128;51.580;5.170;2023-04-24T06:03:40;13.90;99.90
47382;DHT22;33128;51.580;5.170;2023-04-24T06:06:06;13.90;99.90
47382;DHT22;33128;51.580;5.170;2023-04-24T06:08:32;14.00;99.90
47382;DHT22;33128;51.580;5.170;2023-04-24T06:10:58;13.90;99.90
47382;DHT22;33128;51.580;5.170;2023-04-24T06:13:23;14.00;99.90
47382;DHT22;33128;51.580;5.170;2023-04-24T06:15:50;13.80;99.90
47382;DHT22;33128;51.580;5.170;2023-04-24T06:18:16;14.00;99.90
47382;DHT22;33128;51.580;5.170;2023-04-24T06:20:42;14.00;99.90
47382;DHT22;33128;51.580;5.170;2023-04-24T06:23:07;14.10;99.90
47382;DHT22;33128;51.580;5.170;2023-04-24T06:25:33;14.00;99.90
47382;DHT22;33128;51.580;5.170;2023-04-24T06:27:59;14.00;99.90
47382;DHT22;33128;51.580;5.170;2023-04-24T06:30:25;14.10;99.90
47382;DHT22;33128;51.580;5.170;2023-04-24T06:32:51;14.10;99.90
47382;DHT22;33128;51.580;5.170;2023-04-24T06:35:16;13.90;99.90
47382;DHT22;33128;51.580;5.170;2023-04-24T06:37:42;14.00;99.90
47382;DHT22;33128;51.580;5.170;2023-04-24T06:40:10;14.10;99.90
47382;DHT22;33128;51.580;5.170;2023-04-24T06:42:36;13.90;99.90
47382;DHT22;33128;51.580;5.170;2023-04-24T06:45:01;14.00;99.90
47382;DHT22;33128;51.580;5.170;2023-04-24T06:47:27;13.90;99.90
47382;DHT22;33128;51.580;5.170;2023-04-24T06:49:53;13.90;99.90
47382;DHT22;33128;51.580;5.170;2023-04-24T06:52:19;13.80;99.90
47382;DHT22;33128;51.580;5.170;2023-04-24T06:54:45;13.80;99.90
47382;DHT22;33128;51.580;5.170;2023-04-24T06:57:10;13.70;99.90
47382;DHT22;33128;51.580;5.170;2023-04-24T06:59:37;13.80;99.90
47382;DHT22;33128;51.580;5.170;2023-04-24T07:02:02;13.80;99.90
47382;DHT22;33128;51.580;5.170;2023-04-24T07:04:28;13.80;99.90
47382;DHT22;33128;51.580;5.170;2023-04-24T07:06:54;13.80;99.90
47382;DHT22;33128;51.580;5.170;2023-04-24T07:09:21;13.90;99.90
47382;DHT22;33128;51.580;5.170;2023-04-24T07:11:47;13.80;99.90
47382;DHT22;33128;51.580;5.170;2023-04-24T07:14:13;13.80;99.90
47382;DHT22;33128;51.580;5.170;2023-04-24T07:16:39;13.90;99.90
47382;DHT22;33128;51.580;5.170;2023-04-24T07:19:05;13.80;99.90
47382;DHT22;33128;51.580;5.170;2023-04-24T07:21:30;13.80;99.90
47382;DHT22;33128;51.580;5.170;2023-04-24T07:23:58;13.80;99.90
47382;DHT22;33128;51.580;5.170;2023-04-24T07:26:28;13.80;99.90
47382;DHT22;33128;51.580;5.170;2023-04-24T07:28:54;13.90;99.90
47382;DHT22;33128;51.580;5.170;2023-04-24T07:31:20;14.00;99.90
47382;DHT22;33128;51.580;5.170;2023-04-24T07:33:47;13.80;99.90
47382;DHT22;33128;51.580;5.170;2023-04-24T07:36:13;13.80;99.90
47382;DHT22;33128;51.580;5.170;2023-04-24T07:38:42;13.80;99.90
47382;DHT22;33128;51.580;5.170;2023-04-24T07:41:12;13.80;99.90
47382;DHT22;33128;51.580;5.170;2023-04-24T07:43:38;13.80;99.90
47382;DHT22;33128;51.580;5.170;2023-04-24T07:46:03;13.90;99.90
47382;DHT22;33128;51.580;5.170;2023-04-24T07:48:31;14.00;99.90
47382;DHT22;33128;51.580;5.170;2023-04-24T07:50:57;14.00;99.90
47382;DHT22;33128;51.580;5.170;2023-04-24T07:53:22;13.90;99.90
47382;DHT22;33128;51.580;5.170;2023-04-24T07:55:48;14.00;99.90
47382;DHT22;33128;51.580;5.170;2023-04-24T07:58:13;13.90;99.90
47382;DHT22;33128;51.580;5.170;2023-04-24T08:00:39;14.00;99.90
47382;DHT22;33128;51.580;5.170;2023-04-24T08:03:04;14.00;99.90
47382;DHT22;33128;51.580;5.170;2023-04-24T08:05:30;14.10;99.90
47382;DHT22;33128;51.580;5.170;2023-04-24T08:07:58;14.10;99.90
47382;DHT22;33128;51.580;5.170;2023-04-24T08:10:25;14.10;99.90
47382;DHT22;33128;51.580;5.170;2023-04-24T08:12:50;14.10;99.90
47382;DHT22;33128;51.580;5.170;2023-04-24T08:15:16;14.10;99.90
47382;DHT22;33128;51.580;5.170;2023-04-24T08:17:42;14.10;99.90
47382;DHT22;33128;51.580;5.170;2023-04-24T08:20:10;14.10;99.90
47382;DHT22;33128;51.580;5.170;2023-04-24T08:22:42;14.10;99.90
47382;DHT22;33128;51.580;5.170;2023-04-24T08:25:09;14.20;99.90
47382;DHT22;33128;51.580;5.170;2023-04-24T08:27:41;14.20;99.90
47382;DHT22;33128;51.580;5.170;2023-04-24T08:30:07;14.20;99.90
47382;DHT22;33128;51.580;5.170;2023-04-24T08:32:36;14.20;99.90
47382;DHT22;33128;51.580;5.170;2023-04-24T08:35:02;14.30;99.90
47382;DHT22;33128;51.580;5.170;2023-04-24T08:37:29;14.30;99.90
47382;DHT22;33128;51.580;5.170;2023-04-24T08:39:54;14.40;99.90
47382;DHT22;33128;51.580;5.170;2023-04-24T08:42:21;14.40;99.90
47382;DHT22;33128;51.580;5.170;2023-04-24T08:44:49;14.40;99.90
47382;DHT22;33128;51.580;5.170;2023-04-24T08:47:16;14.40;99.90
47382;DHT22;33128;51.580;5.170;2023-04-24T08:49:42;14.30;99.90
47382;DHT22;33128;51.580;5.170;2023-04-24T08:52:09;14.30;99.90
47382;DHT22;33128;51.580;5.170;2023-04-24T08:54:35;14.20;99.90
47382;DHT22;33128;51.580;5.170;2023-04-24T08:57:05;14.30;99.90
47382;DHT22;33128;51.580;5.170;2023-04-24T08:59:33;14.30;99.90
47382;DHT22;33128;51.580;5.170;2023-04-24T09:02:03;14.30;99.90
47382;DHT22;33128;51.580;5.170;2023-04-24T09:04:29;14.40;99.90
47382;DHT22;33128;51.580;5.170;2023-04-24T09:06:56;14.50;99.90
47382;DHT22;33128;51.580;5.170;2023-04-24T09:09:24;14.50;99.90
47382;DHT22;33128;51.580;5.170;2023-04-24T09:11:50;14.60;99.90
47382;DHT22;33128;51.580;5.170;2023-04-24T09:14:19;14.70;99.90
47382;DHT22;33128;51.580;5.170;2023-04-24T09:16:45;14.60;99.90
47382;DHT22;33128;51.580;5.170;2023-04-24T09:21:37;10.90;99.90
47382;DHT22;33128;51.580;5.170;2023-04-24T09:24:07;11.20;99.90
47382;DHT22;33128;51.580;5.170;2023-04-24T09:26:35;12.70;99.90
47382;DHT22;33128;51.580;5.170;2023-04-24T09:29:02;13.40;99.90
47382;DHT22;33128;51.580;5.170;2023-04-24T09:31:29;13.70;99.90
47382;DHT22;33128;51.580;5.170;2023-04-24T09:34:03;14.00;99.90
47382;DHT22;33128;51.580;5.170;2023-04-24T09:36:41;14.40;99.90
47382;DHT22;33128;51.580;5.170;2023-04-24T09:39:17;14.60;99.90
47382;DHT22;33128;51.580;5.170;2023-04-24T09:41:50;14.50;99.90
47382;DHT22;33128;51.580;5.170;2023-04-24T09:44:17;14.60;99.90
47382;DHT22;33128;51.580;5.170;2023-04-24T09:46:50;14.70;99.90
47382;DHT22;33128;51.580;5.170;2023-04-24T09:49:21;14.80;99.90
47382;DHT22;33128;51.580;5.170;2023-04-24T09:51:47;14.80;99.90
47382;DHT22;33128;51.580;5.170;2023-04-24T09:54:17;15.00;99.90
47382;DHT22;33128;51.580;5.170;2023-04-24T09:56:45;15.00;99.90
47382;DHT22;33128;51.580;5.170;2023-04-24T09:59:15;14.90;99.90
47382;DHT22;33128;51.580;5.170;2023-04-24T10:01:41;14.90;99.90
47382;DHT22;33128;51.580;5.170;2023-04-24T10:04:28;14.90;99.90
47382;DHT22;33128;51.580;5.170;2023-04-24T10:06:56;14.90;99.90
47382;DHT22;33128;51.580;5.170;2023-04-24T10:09:26;14.80;99.90
47382;DHT22;33128;51.580;5.170;2023-04-24T10:11:54;14.70;99.90
47382;DHT22;33128;51.580;5.170;2023-04-24T10:14:21;14.70;99.90
47382;DHT22;33128;51.580;5.170;2023-04-24T10:17:12;14.80;99.90
47382;DHT22;33128;51.580;5.170;2023-04-24T10:19:42;14.90;99.90
47382;DHT22;33128;51.580;5.170;2023-04-24T10:22:08;14.80;99.90
47382;DHT22;33128;51.580;5.170;2023-04-24T10:24:34;14.70;99.90
47382;DHT22;33128;51.580;5.170;2023-04-24T10:27:03;14.80;99.90
47382;DHT22;33128;51.580;5.170;2023-04-24T10:29:31;14.90;99.90
47382;DHT22;33128;51.580;5.170;2023-04-24T10:31:57;15.00;99.90
47382;DHT22;33128;51.580;5.170;2023-04-24T10:34:23;14.80;99.90
47382;DHT22;33128;51.580;5.170;2023-04-24T10:36:51;14.90;99.90
47382;DHT22;33128;51.580;5.170;2023-04-24T10:39:18;14.90;99.90
47382;DHT22;33128;51.580;5.170;2023-04-24T10:41:45;14.90;99.90
47382;DHT22;33128;51.580;5.170;2023-04-24T10:44:13;14.90;99.90
47382;DHT22;33128;51.580;5.170;2023-04-24T10:46:43;14.90;99.90
47382;DHT22;33128;51.580;5.170;2023-04-24T10:49:09;14.90;99.90
47382;DHT22;33128;51.580;5.170;2023-04-24T10:51:52;14.90;99.90
47382;DHT22;33128;51.580;5.170;2023-04-24T10:54:45;15.00;99.90
47382;DHT22;33128;51.580;5.170;2023-04-24T10:59:49;15.10;99.90
47382;DHT22;33128;51.580;5.170;2023-04-24T11:02:15;14.80;99.90
47382;DHT22;33128;51.580;5.170;2023-04-24T11:04:41;14.80;99.90
47382;DHT22;33128;51.580;5.170;2023-04-24T11:07:13;14.90;99.90
47382;DHT22;33128;51.580;5.170;2023-04-24T11:09:39;14.70;99.90
47382;DHT22;33128;51.580;5.170;2023-04-24T11:12:11;14.80;99.90
47382;DHT22;33128;51.580;5.170;2023-04-24T11:17:31;15.00;99.90
47382;DHT22;33128;51.580;5.170;2023-04-24T11:20:11;15.00;99.90
47382;DHT22;33128;51.580;5.170;2023-04-24T11:22:39;15.20;99.90
47382;DHT22;33128;51.580;5.170;2023-04-24T11:25:09;15.20;99.90
47382;DHT22;33128;51.580;5.170;2023-04-24T11:27:45;15.10;99.90
47382;DHT22;33128;51.580;5.170;2023-04-24T11:30:12;15.00;99.90
47382;DHT22;33128;51.580;5.170;2023-04-24T11:32:42;15.10;99.90
47382;DHT22;33128;51.580;5.170;2023-04-24T11:35:15;15.00;99.90
47382;DHT22;33128;51.580;5.170;2023-04-24T11:37:49;15.10;99.90
47382;DHT22;33128;51.580;5.170;2023-04-24T11:40:17;15.00;99.90
47382;DHT22;33128;51.580;5.170;2023-04-24T11:42:46;14.90;99.90
47382;DHT22;33128;51.580;5.170;2023-04-24T11:45:32;14.90;99.90
47382;DHT22;33128;51.580;5.170;2023-04-24T11:47:58;15.00;99.90
47382;DHT22;33128;51.580;5.170;2023-04-24T11:50:25;15.10;99.90
47382;DHT22;33128;51.580;5.170;2023-04-24T11:52:52;15.30;99.90
47382;DHT22;33128;51.580;5.170;2023-04-24T11:57:45;15.50;99.90
47382;DHT22;33128;51.580;5.170;2023-04-24T12:00:25;15.20;99.90
47382;DHT22;33128;51.580;5.170;2023-04-24T12:03:10;15.20;99.90
47382;DHT22;33128;51.580;5.170;2023-04-24T12:05:38;15.20;99.90
47382;DHT22;33128;51.580;5.170;2023-04-24T12:08:08;15.30;99.90
47382;DHT22;33128;51.580;5.170;2023-04-24T12:10:36;15.30;99.90
47382;DHT22;33128;51.580;5.170;2023-04-24T12:13:02;15.30;99.90
47382;DHT22;33128;51.580;5.170;2023-04-24T12:15:29;15.30;99.90
47382;DHT22;33128;51.580;5.170;2023-04-24T12:17:55;15.40;99.90
47382;DHT22;33128;51.580;5.170;2023-04-24T12:20:29;15.50;99.90
47382;DHT22;33128;51.580;5.170;2023-04-24T12:22:57;15.70;99.90
47382;DHT22;33128;51.580;5.170;2023-04-24T12:25:25;15.70;99.90
47382;DHT22;33128;51.580;5.170;2023-04-24T12:28:09;15.70;99.90
47382;DHT22;33128;51.580;5.170;2023-04-24T12:30:47;15.70;99.90
47382;DHT22;33128;51.580;5.170;2023-04-24T12:33:20;16.10;99.90
47382;DHT22;33128;51.580;5.170;2023-04-24T12:35:47;16.10;99.90
47382;DHT22;33128;51.580;5.170;2023-04-24T12:38:13;16.60;99.90
47382;DHT22;33128;51.580;5.170;2023-04-24T12:40:41;16.50;99.90
47382;DHT22;33128;51.580;5.170;2023-04-24T12:43:18;16.40;99.90
47382;DHT22;33128;51.580;5.170;2023-04-24T12:45:44;16.40;99.90
47382;DHT22;33128;51.580;5.170;2023-04-24T12:48:12;16.00;99.90
47382;DHT22;33128;51.580;5.170;2023-04-24T12:50:44;16.00;99.90
47382;DHT22;33128;51.580;5.170;2023-04-24T12:53:09;16.10;99.90
47382;DHT22;33128;51.580;5.170;2023-04-24T12:55:36;15.90;99.90
47382;DHT22;33128;51.580;5.170;2023-04-24T12:58:02;16.20;99.90
47382;DHT22;33128;51.580;5.170;2023-04-24T13:00:28;16.10;99.90
47382;DHT22;33128;51.580;5.170;2023-04-24T13:02:54;16.40;99.90
47382;DHT22;33128;51.580;5.170;2023-04-24T13:05:20;16.40;99.90
47382;DHT22;33128;51.580;5.170;2023-04-24T13:07:45;16.60;99.90
47382;DHT22;33128;51.580;5.170;2023-04-24T13:10:11;16.40;99.90
47382;DHT22;33128;51.580;5.170;2023-04-24T13:12:38;16.20;99.90
47382;DHT22;33128;51.580;5.170;2023-04-24T13:15:04;15.80;99.90
47382;DHT22;33128;51.580;5.170;2023-04-24T13:17:30;15.90;99.90
47382;DHT22;33128;51.580;5.170;2023-04-24T13:19:56;15.90;99.90
47382;DHT22;33128;51.580;5.170;2023-04-24T13:22:21;15.80;99.90
47382;DHT22;33128;51.580;5.170;2023-04-24T13:24:47;15.80;99.90
47382;DHT22;33128;51.580;5.170;2023-04-24T13:27:16;15.70;99.90
47382;DHT22;33128;51.580;5.170;2023-04-24T13:29:42;15.80;99.90
47382;DHT22;33128;51.580;5.170;2023-04-24T13:32:08;15.80;99.90
47382;DHT22;33128;51.580;5.170;2023-04-24T13:34:34;15.70;99.90
47382;DHT22;33128;51.580;5.170;2023-04-24T13:37:03;15.70;99.90
47382;DHT22;33128;51.580;5.170;2023-04-24T13:39:31;15.70;99.90
47382;DHT22;33128;51.580;5.170;2023-04-24T13:41:58;15.90;99.90
47382;DHT22;33128;51.580;5.170;2023-04-24T13:44:24;15.70;99.90
47382;DHT22;33128;51.580;5.170;2023-04-24T13:46:52;15.70;99.90
47382;DHT22;33128;51.580;5.170;2023-04-24T13:49:20;15.70;99.90
47382;DHT22;33128;51.580;5.170;2023-04-24T13:51:46;15.70;99.90
47382;DHT22;33128;51.580;5.170;2023-04-24T13:54:12;15.70;99.90
47382;DHT22;33128;51.580;5.170;2023-04-24T14:01:33;16.90;99.90
47382;DHT22;33128;51.580;5.170;2023-04-24T14:03:59;17.00;99.90
47382;DHT22;33128;51.580;5.170;2023-04-24T14:06:25;16.90;99.90
47382;DHT22;33128;51.580;5.170;2023-04-24T14:08:51;17.00;99.90
47382;DHT22;33128;51.580;5.170;2023-04-24T14:11:18;17.10;99.90
47382;DHT22;33128;51.580;5.170;2023-04-24T14:13:44;17.30;99.90
47382;DHT22;33128;51.580;5.170;2023-04-24T14:18:37;18.30;99.90
47382;DHT22;33128;51.580;5.170;2023-04-24T14:21:03;17.90;99.90
47382;DHT22;33128;51.580;5.170;2023-04-24T14:23:29;17.90;99.90
47382;DHT22;33128;51.580;5.170;2023-04-24T14:25:55;17.80;99.90
47382;DHT22;33128;51.580;5.170;2023-04-24T14:28:21;17.70;99.90
47382;DHT22;33128;51.580;5.170;2023-04-24T14:30:47;17.90;99.90
47382;DHT22;33128;51.580;5.170;2023-04-24T14:33:13;18.10;99.90
47382;DHT22;33128;51.580;5.170;2023-04-24T14:35:40;18.20;99.90
47382;DHT22;33128;51.580;5.170;2023-04-24T14:38:07;18.40;99.90
47382;DHT22;33128;51.580;5.170;2023-04-24T14:40:33;18.20;99.90
47382;DHT22;33128;51.580;5.170;2023-04-24T14:42:58;18.20;99.90
47382;DHT22;33128;51.580;5.170;2023-04-24T14:45:27;18.30;99.90
47382;DHT22;33128;51.580;5.170;2023-04-24T14:47:53;18.20;99.90
47382;DHT22;33128;51.580;5.170;2023-04-24T14:50:19;18.00;99.90
47382;DHT22;33128;51.580;5.170;2023-04-24T14:52:45;18.00;99.90
47382;DHT22;33128;51.580;5.170;2023-04-24T14:55:11;18.00;99.90
47382;DHT22;33128;51.580;5.170;2023-04-24T14:57:39;17.90;99.90
47382;DHT22;33128;51.580;5.170;2023-04-24T15:00:06;17.80;99.90
47382;DHT22;33128;51.580;5.170;2023-04-24T15:02:34;17.70;99.90
47382;DHT22;33128;51.580;5.170;2023-04-24T15:04:59;17.60;99.90
47382;DHT22;33128;51.580;5.170;2023-04-24T15:07:25;17.50;99.90
47382;DHT22;33128;51.580;5.170;2023-04-24T15:09:51;17.40;99.90
47382;DHT22;33128;51.580;5.170;2023-04-24T15:12:17;17.30;99.90
47382;DHT22;33128;51.580;5.170;2023-04-24T15:14:42;17.20;99.90
47382;DHT22;33128;51.580;5.170;2023-04-24T15:17:08;17.00;99.90
47382;DHT22;33128;51.580;5.170;2023-04-24T15:19:33;17.10;99.90
47382;DHT22;33128;51.580;5.170;2023-04-24T15:21:59;17.30;99.90
47382;DHT22;33128;51.580;5.170;2023-04-24T15:24:28;17.20;99.90
47382;DHT22;33128;51.580;5.170;2023-04-24T15:26:54;17.30;99.90
47382;DHT22;33128;51.580;5.170;2023-04-24T15:29:20;17.40;99.90
47382;DHT22;33128;51.580;5.170;2023-04-24T15:31:46;17.30;99.90
47382;DHT22;33128;51.580;5.170;2023-04-24T15:34:11;17.20;99.90
47382;DHT22;33128;51.580;5.170;2023-04-24T15:36:37;17.20;99.90
47382;DHT22;33128;51.580;5.170;2023-04-24T15:39:03;17.10;99.90
47382;DHT22;33128;51.580;5.170;2023-04-24T15:41:28;17.00;99.90
47382;DHT22;33128;51.580;5.170;2023-04-24T15:43:54;17.20;99.90
47382;DHT22;33128;51.580;5.170;2023-04-24T15:46:19;16.90;99.90